sensor_id;sensor_type;location;lat;lon;timestamp;pressure;altitude;pressure_sealevel;temperature;humidity
76297;BME280;65104;52.994;6.552;2023-03-14T00:00:36;98688.78;;;9.04;81.20
76297;BME280;65104;52.994;6.552;2023-03-14T00:03:10;98675.94;;;9.12;81.21
76297;BME280;65104;52.994;6.552;2023-03-14T00:06:08;98677.56;;;9.19;80.83
76297;BME280;65104;52.994;6.552;2023-03-14T00:08:40;98656.97;;;9.28;80.77
76297;BME280;65104;52.994;6.552;2023-03-14T00:11:12;98664.44;;;9.48;79.69
76297;BME280;65104;52.994;6.552;2023-03-14T00:13:47;98660.22;;;9.43;79.49
76297;BME280;65104;52.994;6.552;2023-03-14T00:16:16;98657.63;;;9.46;79.75
76297;BME280;65104;52.994;6.552;2023-03-14T00:18:47;98660.09;;;9.53;79.55
76297;BME280;65104;52.994;6.552;2023-03-14T00:21:21;98658.25;;;9.66;79.94
76297;BME280;65104;52.994;6.552;2023-03-14T00:23:56;98648.75;;;9.74;78.84
76297;BME280;65104;52.994;6.552;2023-03-14T00:26:25;98646.13;;;9.77;78.70
76297;BME280;65104;52.994;6.552;2023-03-14T00:28:58;98649.31;;;9.94;77.84
76297;BME280;65104;52.994;6.552;2023-03-14T00:31:29;98649.25;;;10.00;77.98
76297;BME280;65104;52.994;6.552;2023-03-14T00:33:59;98639.75;;;10.04;77.81
76297;BME280;65104;52.994;6.552;2023-03-14T00:36:36;98629.47;;;10.08;77.19
76297;BME280;65104;52.994;6.552;2023-03-14T00:39:07;98633.03;;;9.97;77.92
76297;BME280;65104;52.994;6.552;2023-03-14T00:41:35;98635.56;;;10.00;77.63
76297;BME280;65104;52.994;6.552;2023-03-14T00:44:08;98630.44;;;10.01;77.94
76297;BME280;65104;52.994;6.552;2023-03-14T00:46:37;98633.75;;;10.06;77.87
76297;BME280;65104;52.994;6.552;2023-03-14T00:49:07;98626.09;;;10.03;77.40
76297;BME280;65104;52.994;6.552;2023-03-14T00:51:37;98614.19;;;10.01;76.92
76297;BME280;65104;52.994;6.552;2023-03-14T00:54:06;98608.25;;;9.96;77.91
76297;BME280;65104;52.994;6.552;2023-03-14T00:56:34;98619.13;;;10.11;76.88
76297;BME280;65104;52.994;6.552;2023-03-14T00:59:02;98613.22;;;10.09;76.88
76297;BME280;65104;52.994;6.552;2023-03-14T01:01:31;98606.38;;;10.08;77.19
76297;BME280;65104;52.994;6.552;2023-03-14T01:03:58;98599.53;;;10.10;77.64
76297;BME280;65104;52.994;6.552;2023-03-14T01:06:28;98603.81;;;10.08;77.15
76297;BME280;65104;52.994;6.552;2023-03-14T01:08:59;98605.63;;;10.02;77.51
76297;BME280;65104;52.994;6.552;2023-03-14T01:11:32;98609.69;;;10.15;77.28
76297;BME280;65104;52.994;6.552;2023-03-14T01:14:04;98592.44;;;10.28;76.48
76297;BME280;65104;52.994;6.552;2023-03-14T01:16:35;98602.75;;;10.23;76.63
76297;BME280;65104;52.994;6.552;2023-03-14T01:19:05;98602.72;;;10.25;76.64
76297;BME280;65104;52.994;6.552;2023-03-14T01:21:34;98616.50;;;10.19;76.72
76297;BME280;65104;52.994;6.552;2023-03-14T01:24:05;98606.31;;;10.11;76.83
76297;BME280;65104;52.994;6.552;2023-03-14T01:26:36;98606.28;;;10.14;76.62
76297;BME280;65104;52.994;6.552;2023-03-14T01:29:05;98616.53;;;10.14;77.49
76297;BME280;65104;52.994;6.552;2023-03-14T01:31:33;98616.63;;;10.08;78.49
76297;BME280;65104;52.994;6.552;2023-03-14T01:34:08;98614.09;;;10.07;78.80
76297;BME280;65104;52.994;6.552;2023-03-14T01:36:38;98629.28;;;10.22;77.31
76297;BME280;65104;52.994;6.552;2023-03-14T01:39:05;98624.16;;;10.21;76.79
76297;BME280;65104;52.994;6.552;2023-03-14T01:41:35;98625.09;;;10.13;77.67
76297;BME280;65104;52.994;6.552;2023-03-14T01:44:05;98614.81;;;10.16;77.56
76297;BME280;65104;52.994;6.552;2023-03-14T01:46:45;98616.56;;;10.11;77.99
76297;BME280;65104;52.994;6.552;2023-03-14T01:49:28;98625.19;;;10.07;77.49
76297;BME280;65104;52.994;6.552;2023-03-14T01:54:37;98621.88;;;10.01;77.39
76297;BME280;65104;52.994;6.552;2023-03-14T01:59:44;98618.63;;;9.88;78.39
76297;BME280;65104;52.994;6.552;2023-03-14T02:02:13;98616.94;;;9.86;78.49
76297;BME280;65104;52.994;6.552;2023-03-14T02:04:45;98610.13;;;9.85;78.89
76297;BME280;65104;52.994;6.552;2023-03-14T02:07:24;98597.34;;;9.83;78.66
76297;BME280;65104;52.994;6.552;2023-03-14T02:09:55;98594.81;;;9.82;78.79
76297;BME280;65104;52.994;6.552;2023-03-14T02:12:26;98596.56;;;9.78;79.47
76297;BME280;65104;52.994;6.552;2023-03-14T02:14:54;98601.75;;;9.75;79.42
76297;BME280;65104;52.994;6.552;2023-03-14T02:17:22;98592.28;;;9.78;79.03
76297;BME280;65104;52.994;6.552;2023-03-14T02:20:12;98593.97;;;9.79;78.86
76297;BME280;65104;52.994;6.552;2023-03-14T02:22:45;98594.09;;;9.72;80.00
76297;BME280;65104;52.994;6.552;2023-03-14T02:27:57;98600.91;;;9.73;79.69
76297;BME280;65104;52.994;6.552;2023-03-14T02:30:27;98596.69;;;9.69;79.99
76297;BME280;65104;52.994;6.552;2023-03-14T02:33:01;98586.41;;;9.70;79.51
76297;BME280;65104;52.994;6.552;2023-03-14T02:35:39;98589.84;;;9.71;79.88
76297;BME280;65104;52.994;6.552;2023-03-14T02:41:08;98590.78;;;9.64;80.63
76297;BME280;65104;52.994;6.552;2023-03-14T02:43:35;98590.81;;;9.61;80.34
76297;BME280;65104;52.994;6.552;2023-03-14T02:46:05;98584.84;;;9.59;80.80
76297;BME280;65104;52.994;6.552;2023-03-14T02:49:01;98574.69;;;9.56;79.78
76297;BME280;65104;52.994;6.552;2023-03-14T02:51:27;98572.91;;;9.58;79.97
76297;BME280;65104;52.994;6.552;2023-03-14T02:53:57;98578.13;;;9.52;81.18
76297;BME280;65104;52.994;6.552;2023-03-14T02:56:26;98567.91;;;9.49;80.86
76297;BME280;65104;52.994;6.552;2023-03-14T02:58:56;98583.38;;;9.43;80.66
76297;BME280;65104;52.994;6.552;2023-03-14T03:01:26;98583.47;;;9.35;83.96
76297;BME280;65104;52.994;6.552;2023-03-14T03:03:53;98590.50;;;9.19;86.76
76297;BME280;65104;52.994;6.552;2023-03-14T03:06:22;98582.13;;;9.05;88.95
76297;BME280;65104;52.994;6.552;2023-03-14T03:08:53;98580.53;;;8.95;89.43
76297;BME280;65104;52.994;6.552;2023-03-14T03:11:21;98572.91;;;8.92;90.65
76297;BME280;65104;52.994;6.552;2023-03-14T03:13:51;98578.03;;;8.87;91.00
76297;BME280;65104;52.994;6.552;2023-03-14T03:16:23;98581.47;;;8.88;91.02
76297;BME280;65104;52.994;6.552;2023-03-14T03:18:54;98579.75;;;8.87;91.34
76297;BME280;65104;52.994;6.552;2023-03-14T03:21:23;98588.34;;;8.84;90.88
76297;BME280;65104;52.994;6.552;2023-03-14T03:23:52;98587.53;;;8.78;92.03
76297;BME280;65104;52.994;6.552;2023-03-14T03:26:20;98579.00;;;8.79;91.96
76297;BME280;65104;52.994;6.552;2023-03-14T03:28:51;98586.72;;;8.76;91.66
76297;BME280;65104;52.994;6.552;2023-03-14T03:31:20;98579.03;;;8.76;92.56
76297;BME280;65104;52.994;6.552;2023-03-14T03:33:49;98581.63;;;8.73;91.89
76297;BME280;65104;52.994;6.552;2023-03-14T03:36:23;98579.94;;;8.69;92.19
76297;BME280;65104;52.994;6.552;2023-03-14T03:38:52;98584.19;;;8.70;92.51
76297;BME280;65104;52.994;6.552;2023-03-14T03:41:23;98579.09;;;8.70;92.67
76297;BME280;65104;52.994;6.552;2023-03-14T03:43:55;98580.84;;;8.68;92.88
76297;BME280;65104;52.994;6.552;2023-03-14T03:46:24;98568.91;;;8.63;93.10
76297;BME280;65104;52.994;6.552;2023-03-14T03:48:56;98577.47;;;8.59;93.55
76297;BME280;65104;52.994;6.552;2023-03-14T03:51:27;98583.50;;;8.52;94.25
76297;BME280;65104;52.994;6.552;2023-03-14T03:53:57;98573.28;;;8.54;94.96
76297;BME280;65104;52.994;6.552;2023-03-14T03:56:26;98578.41;;;8.52;95.02
76297;BME280;65104;52.994;6.552;2023-03-14T03:58:55;98581.81;;;8.51;95.53
76297;BME280;65104;52.994;6.552;2023-03-14T04:01:24;98581.03;;;8.45;95.41
76297;BME280;65104;52.994;6.552;2023-03-14T04:03:53;98578.47;;;8.43;96.19
76297;BME280;65104;52.994;6.552;2023-03-14T04:06:22;98580.25;;;8.37;96.55
76297;BME280;65104;52.994;6.552;2023-03-14T04:08:54;98581.13;;;8.36;96.98
76297;BME280;65104;52.994;6.552;2023-03-14T04:11:25;98579.47;;;8.32;97.29
76297;BME280;65104;52.994;6.552;2023-03-14T04:13:55;98581.16;;;8.28;97.89
76297;BME280;65104;52.994;6.552;2023-03-14T04:16:26;98587.97;;;8.27;98.29
76297;BME280;65104;52.994;6.552;2023-03-14T04:18:55;98586.28;;;8.26;98.73
76297;BME280;65104;52.994;6.552;2023-03-14T04:21:29;98577.78;;;8.23;99.43
76297;BME280;65104;52.994;6.552;2023-03-14T04:23:56;98577.78;;;8.23;99.66
76297;BME280;65104;52.994;6.552;2023-03-14T04:26:25;98577.78;;;8.23;99.63
76297;BME280;65104;52.994;6.552;2023-03-14T04:28:53;98588.06;;;8.17;99.89
76297;BME280;65104;52.994;6.552;2023-03-14T04:31:23;98581.22;;;8.19;99.59
76297;BME280;65104;52.994;6.552;2023-03-14T04:33:49;98578.66;;;8.22;99.35
76297;BME280;65104;52.994;6.552;2023-03-14T04:36:20;98575.19;;;8.27;98.94
76297;BME280;65104;52.994;6.552;2023-03-14T04:38:49;98574.34;;;8.27;98.54
76297;BME280;65104;52.994;6.552;2023-03-14T04:41:17;98574.34;;;8.27;98.55
76297;BME280;65104;52.994;6.552;2023-03-14T04:43:45;98569.25;;;8.24;98.74
76297;BME280;65104;52.994;6.552;2023-03-14T04:46:14;98567.53;;;8.26;98.75
76297;BME280;65104;52.994;6.552;2023-03-14T04:48:44;98559.00;;;8.24;98.50
76297;BME280;65104;52.994;6.552;2023-03-14T04:51:14;98562.47;;;8.23;98.84
76297;BME280;65104;52.994;6.552;2023-03-14T04:53:44;98566.72;;;8.22;98.84
76297;BME280;65104;52.994;6.552;2023-03-14T04:56:13;98554.75;;;8.24;99.02
76297;BME280;65104;52.994;6.552;2023-03-14T04:58:41;98547.97;;;8.22;98.86
76297;BME280;65104;52.994;6.552;2023-03-14T05:01:11;98553.97;;;8.18;99.17
76297;BME280;65104;52.994;6.552;2023-03-14T05:03:39;98553.94;;;8.21;98.56
76297;BME280;65104;52.994;6.552;2023-03-14T05:06:09;98556.47;;;8.24;98.41
76297;BME280;65104;52.994;6.552;2023-03-14T05:08:41;98544.56;;;8.20;98.51
76297;BME280;65104;52.994;6.552;2023-03-14T05:11:10;98550.53;;;8.22;98.97
76297;BME280;65104;52.994;6.552;2023-03-14T05:13:39;98540.31;;;8.22;98.73
76297;BME280;65104;52.994;6.552;2023-03-14T05:16:10;98542.00;;;8.23;98.46
76297;BME280;65104;52.994;6.552;2023-03-14T05:18:39;98528.38;;;8.21;98.91
76297;BME280;65104;52.994;6.552;2023-03-14T05:21:07;98531.75;;;8.24;97.82
76297;BME280;65104;52.994;6.552;2023-03-14T05:23:36;98538.56;;;8.24;98.34
76297;BME280;65104;52.994;6.552;2023-03-14T05:26:08;98539.38;;;8.29;97.63
76297;BME280;65104;52.994;6.552;2023-03-14T05:28:38;98535.16;;;8.31;97.78
76297;BME280;65104;52.994;6.552;2023-03-14T05:31:07;98543.66;;;8.28;98.41
76297;BME280;65104;52.994;6.552;2023-03-14T05:33:36;98537.69;;;8.25;98.66
76297;BME280;65104;52.994;6.552;2023-03-14T05:36:02;98544.56;;;8.23;98.77
76297;BME280;65104;52.994;6.552;2023-03-14T05:38:30;98541.19;;;8.18;99.92
76297;BME280;65104;52.994;6.552;2023-03-14T05:40:58;98544.59;;;8.18;99.76
76297;BME280;65104;52.994;6.552;2023-03-14T05:43:25;98539.50;;;8.15;100.00
76297;BME280;65104;52.994;6.552;2023-03-14T05:45:55;98535.28;;;8.13;100.00
76297;BME280;65104;52.994;6.552;2023-03-14T05:48:21;98538.69;;;8.09;100.00
76297;BME280;65104;52.994;6.552;2023-03-14T05:50:57;98531.88;;;8.11;100.00
76297;BME280;65104;52.994;6.552;2023-03-14T05:53:25;98532.72;;;8.10;100.00
76297;BME280;65104;52.994;6.552;2023-03-14T05:55:58;98532.75;;;8.07;100.00
76297;BME280;65104;52.994;6.552;2023-03-14T05:58:26;98531.94;;;8.05;100.00
76297;BME280;65104;52.994;6.552;2023-03-14T06:00:56;98531.88;;;8.08;100.00
76297;BME280;65104;52.994;6.552;2023-03-14T06:03:24;98537.03;;;8.05;100.00
76297;BME280;65104;52.994;6.552;2023-03-14T06:05:54;98542.13;;;8.08;100.00
76297;BME280;65104;52.994;6.552;2023-03-14T06:08:21;98546.38;;;8.09;100.00
76297;BME280;65104;52.994;6.552;2023-03-14T06:10:49;98545.50;;;8.10;100.00
76297;BME280;65104;52.994;6.552;2023-03-14T06:13:20;98553.16;;;8.11;100.00
76297;BME280;65104;52.994;6.552;2023-03-14T06:15:52;98544.66;;;8.09;100.00
76297;BME280;65104;52.994;6.552;2023-03-14T06:18:25;98546.34;;;8.10;100.00
76297;BME280;65104;52.994;6.552;2023-03-14T06:20:57;98544.66;;;8.08;100.00
76297;BME280;65104;52.994;6.552;2023-03-14T06:23:24;98548.91;;;8.12;100.00
76297;BME280;65104;52.994;6.552;2023-03-14T06:25:57;98546.34;;;8.13;100.00
76297;BME280;65104;52.994;6.552;2023-03-14T06:28:27;98559.94;;;8.17;100.00
76297;BME280;65104;52.994;6.552;2023-03-14T06:31:00;98557.41;;;8.14;100.00
76297;BME280;65104;52.994;6.552;2023-03-14T06:33:29;98560.84;;;8.11;100.00
76297;BME280;65104;52.994;6.552;2023-03-14T06:35:58;98564.19;;;8.16;100.00
76297;BME280;65104;52.994;6.552;2023-03-14T06:38:26;98567.66;;;8.08;100.00
76297;BME280;65104;52.994;6.552;2023-03-14T06:41:05;98570.22;;;8.09;100.00
76297;BME280;65104;52.994;6.552;2023-03-14T06:43:37;98588.09;;;8.11;100.00
76297;BME280;65104;52.994;6.552;2023-03-14T06:46:08;98585.53;;;8.12;100.00
76297;BME280;65104;52.994;6.552;2023-03-14T06:48:37;98597.44;;;8.15;100.00
76297;BME280;65104;52.994;6.552;2023-03-14T06:51:07;98597.41;;;8.18;100.00
76297;BME280;65104;52.994;6.552;2023-03-14T06:53:36;98599.97;;;8.16;100.00
76297;BME280;65104;52.994;6.552;2023-03-14T06:56:07;98609.34;;;8.19;100.00
76297;BME280;65104;52.994;6.552;2023-03-14T06:58:35;98619.59;;;8.16;100.00
76297;BME280;65104;52.994;6.552;2023-03-14T07:01:31;98663.94;;;8.13;100.00
76297;BME280;65104;52.994;6.552;2023-03-14T07:04:02;98677.00;;;7.60;100.00
76297;BME280;65104;52.994;6.552;2023-03-14T07:06:31;98699.28;;;6.67;96.78
76297;BME280;65104;52.994;6.552;2023-03-14T07:08:57;98716.25;;;6.31;97.62
76297;BME280;65104;52.994;6.552;2023-03-14T07:11:28;98729.81;;;6.12;99.03
76297;BME280;65104;52.994;6.552;2023-03-14T07:13:58;98745.03;;;6.01;99.47
76297;BME280;65104;52.994;6.552;2023-03-14T07:16:30;98761.06;;;5.76;99.10
76297;BME280;65104;52.994;6.552;2023-03-14T07:22:54;98782.91;;;5.35;99.21
76297;BME280;65104;52.994;6.552;2023-03-14T07:25:19;98805.75;;;5.30;99.33
76297;BME280;65104;52.994;6.552;2023-03-14T07:45:29;98902.19;;;4.26;100.00
76297;BME280;65104;52.994;6.552;2023-03-14T07:47:55;98923.78;;;3.96;98.30
76297;BME280;65104;52.994;6.552;2023-03-14T07:50:26;98938.69;;;3.73;97.34
76297;BME280;65104;52.994;6.552;2023-03-14T07:52:51;98953.22;;;3.82;97.58
76297;BME280;65104;52.994;6.552;2023-03-14T07:55:17;98956.59;;;3.81;97.28
76297;BME280;65104;52.994;6.552;2023-03-14T07:57:43;98958.00;;;3.64;97.58
76297;BME280;65104;52.994;6.552;2023-03-14T08:00:08;98966.66;;;3.75;97.06
76297;BME280;65104;52.994;6.552;2023-03-14T08:02:34;98976.59;;;3.63;96.86
76297;BME280;65104;52.994;6.552;2023-03-14T08:05:01;98982.53;;;3.63;97.38
76297;BME280;65104;52.994;6.552;2023-03-14T08:07:26;98986.06;;;3.73;97.67
76297;BME280;65104;52.994;6.552;2023-03-14T08:09:52;98999.59;;;3.72;97.63
76297;BME280;65104;52.994;6.552;2023-03-14T08:12:17;99004.63;;;3.70;97.80
76297;BME280;65104;52.994;6.552;2023-03-14T08:14:43;99006.50;;;3.81;97.83
76297;BME280;65104;52.994;6.552;2023-03-14T08:17:08;99012.53;;;3.87;98.54
76297;BME280;65104;52.994;6.552;2023-03-14T08:19:34;99016.81;;;3.90;97.95
76297;BME280;65104;52.994;6.552;2023-03-14T08:21:59;99033.78;;;3.92;96.63
76297;BME280;65104;52.994;6.552;2023-03-14T08:24:25;99051.56;;;3.94;96.60
76297;BME280;65104;52.994;6.552;2023-03-14T08:26:50;99057.63;;;4.03;97.37
76297;BME280;65104;52.994;6.552;2023-03-14T08:29:16;99059.41;;;4.07;97.57
76297;BME280;65104;52.994;6.552;2023-03-14T08:31:41;99061.94;;;4.07;96.32
76297;BME280;65104;52.994;6.552;2023-03-14T08:34:06;99063.59;;;4.05;96.26
76297;BME280;65104;52.994;6.552;2023-03-14T08:36:32;99076.50;;;4.18;95.93
76297;BME280;65104;52.994;6.552;2023-03-14T08:38:57;99075.03;;;4.32;96.03
76297;BME280;65104;52.994;6.552;2023-03-14T08:41:23;99078.59;;;4.43;96.83
76297;BME280;65104;52.994;6.552;2023-03-14T08:43:48;99086.03;;;4.32;96.33
76297;BME280;65104;52.994;6.552;2023-03-14T08:46:14;99102.97;;;4.32;95.85
76297;BME280;65104;52.994;6.552;2023-03-14T08:48:39;99112.16;;;4.24;95.71
76297;BME280;65104;52.994;6.552;2023-03-14T08:51:10;99114.19;;;4.44;96.66
76297;BME280;65104;52.994;6.552;2023-03-14T08:53:39;99126.81;;;4.40;94.55
76297;BME280;65104;52.994;6.552;2023-03-14T08:56:05;99143.00;;;4.45;94.41
76297;BME280;65104;52.994;6.552;2023-03-14T08:58:31;99155.94;;;4.60;94.99
76297;BME280;65104;52.994;6.552;2023-03-14T09:00:57;99168.75;;;4.66;94.10
76297;BME280;65104;52.994;6.552;2023-03-14T09:03:23;99181.00;;;4.90;94.99
76297;BME280;65104;52.994;6.552;2023-03-14T09:05:50;99192.19;;;5.03;92.84
76297;BME280;65104;52.994;6.552;2023-03-14T09:08:15;99205.34;;;4.76;90.43
76297;BME280;65104;52.994;6.552;2023-03-14T09:10:41;99221.56;;;4.84;92.47
76297;BME280;65104;52.994;6.552;2023-03-14T09:13:06;99242.19;;;5.02;91.92
76297;BME280;65104;52.994;6.552;2023-03-14T09:15:32;99237.34;;;5.16;90.60
76297;BME280;65104;52.994;6.552;2023-03-14T09:17:58;99237.53;;;5.31;90.48
76297;BME280;65104;52.994;6.552;2023-03-14T09:20:23;99242.72;;;5.39;89.81
76297;BME280;65104;52.994;6.552;2023-03-14T09:22:49;99260.53;;;5.37;88.32
76297;BME280;65104;52.994;6.552;2023-03-14T09:25:14;99258.00;;;5.39;87.11
76297;BME280;65104;52.994;6.552;2023-03-14T09:27:40;99271.66;;;5.44;89.93
76297;BME280;65104;52.994;6.552;2023-03-14T09:30:06;99285.09;;;5.34;89.08
76297;BME280;65104;52.994;6.552;2023-03-14T09:32:31;99291.84;;;5.32;90.20
76297;BME280;65104;52.994;6.552;2023-03-14T09:34:57;99298.06;;;5.50;90.34
76297;BME280;65104;52.994;6.552;2023-03-14T09:37:22;99293.78;;;5.49;87.54
76297;BME280;65104;52.994;6.552;2023-03-14T09:39:48;99306.19;;;5.87;89.23
76297;BME280;65104;52.994;6.552;2023-03-14T09:42:17;99322.41;;;5.89;87.20
76297;BME280;65104;52.994;6.552;2023-03-14T09:45:04;99338.19;;;5.68;86.38
76297;BME280;65104;52.994;6.552;2023-03-14T09:47:33;99347.41;;;5.60;86.42
76297;BME280;65104;52.994;6.552;2023-03-14T09:50:05;99359.09;;;5.47;87.35
76297;BME280;65104;52.994;6.552;2023-03-14T09:52:38;99363.00;;;5.25;88.93
76297;BME280;65104;52.994;6.552;2023-03-14T09:55:19;99361.34;;;5.26;87.26
76297;BME280;65104;52.994;6.552;2023-03-14T09:57:50;99373.47;;;5.42;89.79
76297;BME280;65104;52.994;6.552;2023-03-14T10:00:20;99367.72;;;5.54;90.03
76297;BME280;65104;52.994;6.552;2023-03-14T10:02:54;99383.84;;;5.54;89.41
76297;BME280;65104;52.994;6.552;2023-03-14T10:05:24;99391.47;;;5.56;86.11
76297;BME280;65104;52.994;6.552;2023-03-14T10:07:55;99400.09;;;5.62;83.39
76297;BME280;65104;52.994;6.552;2023-03-14T10:10:23;99407.06;;;5.76;83.42
76297;BME280;65104;52.994;6.552;2023-03-14T10:13:18;99413.25;;;5.88;80.48
76297;BME280;65104;52.994;6.552;2023-03-14T10:15:50;99433.44;;;5.78;79.46
76297;BME280;65104;52.994;6.552;2023-03-14T10:18:16;99442.44;;;5.57;79.32
76297;BME280;65104;52.994;6.552;2023-03-14T10:21:04;99458.22;;;5.38;76.71
76297;BME280;65104;52.994;6.552;2023-03-14T10:23:32;99472.84;;;5.48;76.12
76297;BME280;65104;52.994;6.552;2023-03-14T10:26:13;99475.75;;;5.70;78.38
76297;BME280;65104;52.994;6.552;2023-03-14T10:28:43;99481.75;;;5.75;75.89
76297;BME280;65104;52.994;6.552;2023-03-14T10:31:10;99498.56;;;5.63;76.38
76297;BME280;65104;52.994;6.552;2023-03-14T10:33:38;99497.78;;;5.68;75.36
76297;BME280;65104;52.994;6.552;2023-03-14T10:36:28;99507.19;;;5.73;76.08
76297;BME280;65104;52.994;6.552;2023-03-14T10:42:04;99522.81;;;5.90;70.65
76297;BME280;65104;52.994;6.552;2023-03-14T10:44:31;99536.31;;;5.87;71.73
76297;BME280;65104;52.994;6.552;2023-03-14T10:47:03;99549.25;;;5.96;69.50
76297;BME280;65104;52.994;6.552;2023-03-14T10:49:32;99547.81;;;6.14;69.46
76297;BME280;65104;52.994;6.552;2023-03-14T10:52:21;99568.53;;;6.33;67.27
76297;BME280;65104;52.994;6.552;2023-03-14T10:55:02;99578.34;;;6.11;66.51
76297;BME280;65104;52.994;6.552;2023-03-14T10:57:29;99581.13;;;6.24;66.63
76297;BME280;65104;52.994;6.552;2023-03-14T10:59:56;99594.91;;;6.37;65.25
76297;BME280;65104;52.994;6.552;2023-03-14T11:02:44;99600.44;;;6.66;65.08
76297;BME280;65104;52.994;6.552;2023-03-14T11:05:49;99604.31;;;7.71;61.50
76297;BME280;65104;52.994;6.552;2023-03-14T11:11:06;99636.00;;;7.14;60.95
76297;BME280;65104;52.994;6.552;2023-03-14T11:13:43;99657.31;;;6.59;61.95
76297;BME280;65104;52.994;6.552;2023-03-14T11:22:01;99688.75;;;6.58;60.77
76297;BME280;65104;52.994;6.552;2023-03-14T11:27:48;99693.97;;;7.23;58.64
76297;BME280;65104;52.994;6.552;2023-03-14T11:30:55;99689.00;;;8.06;56.35
76297;BME280;65104;52.994;6.552;2023-03-14T11:33:27;99704.91;;;8.60;56.06
76297;BME280;65104;52.994;6.552;2023-03-14T11:36:31;99707.63;;;7.26;56.52
76297;BME280;65104;52.994;6.552;2023-03-14T11:38:56;99733.59;;;6.47;58.86
76297;BME280;65104;52.994;6.552;2023-03-14T11:41:40;99752.69;;;6.20;57.24
76297;BME280;65104;52.994;6.552;2023-03-14T11:44:37;99763.81;;;6.73;56.27
76297;BME280;65104;52.994;6.552;2023-03-14T11:47:17;99770.00;;;7.42;53.06
76297;BME280;65104;52.994;6.552;2023-03-14T11:52:37;99778.19;;;7.78;50.39
76297;BME280;65104;52.994;6.552;2023-03-14T11:55:28;99779.03;;;8.50;50.18
76297;BME280;65104;52.994;6.552;2023-03-14T11:58:51;99775.41;;;8.31;49.07
76297;BME280;65104;52.994;6.552;2023-03-14T12:00:54;99785.63;;;8.33;50.93
76297;BME280;65104;52.994;6.552;2023-03-14T12:03:41;99803.91;;;7.32;50.96
76297;BME280;65104;52.994;6.552;2023-03-14T12:06:49;99810.44;;;6.65;53.32
76297;BME280;65104;52.994;6.552;2023-03-14T12:09:18;99831.75;;;7.15;50.33
76297;BME280;65104;52.994;6.552;2023-03-14T12:14:44;99827.19;;;8.15;50.37
76297;BME280;65104;52.994;6.552;2023-03-14T12:17:38;99827.31;;;9.02;45.67
76297;BME280;65104;52.994;6.552;2023-03-14T12:20:16;99838.69;;;8.50;46.47
76297;BME280;65104;52.994;6.552;2023-03-14T12:22:54;99838.44;;;9.09;46.16
76297;BME280;65104;52.994;6.552;2023-03-14T12:25:24;99842.34;;;8.00;48.83
76297;BME280;65104;52.994;6.552;2023-03-14T12:30:40;99866.66;;;7.18;52.94
76297;BME280;65104;52.994;6.552;2023-03-14T12:35:43;99872.88;;;6.84;51.19
76297;BME280;65104;52.994;6.552;2023-03-14T12:38:16;99874.78;;;6.95;52.34
76297;BME280;65104;52.994;6.552;2023-03-14T12:43:40;99890.50;;;6.71;53.60
76297;BME280;65104;52.994;6.552;2023-03-14T12:46:07;99885.94;;;8.10;51.47
76297;BME280;65104;52.994;6.552;2023-03-14T12:48:38;99887.56;;;8.72;46.80
76297;BME280;65104;52.994;6.552;2023-03-14T12:51:13;99898.16;;;9.05;50.22
76297;BME280;65104;52.994;6.552;2023-03-14T12:56:28;99907.06;;;7.99;50.92
76297;BME280;65104;52.994;6.552;2023-03-14T13:04:53;99936.25;;;6.64;49.33
76297;BME280;65104;52.994;6.552;2023-03-14T13:07:32;99945.50;;;7.01;46.60
76297;BME280;65104;52.994;6.552;2023-03-14T13:12:47;99948.97;;;6.61;47.31
76297;BME280;65104;52.994;6.552;2023-03-14T13:15:38;99957.00;;;6.81;47.94
76297;BME280;65104;52.994;6.552;2023-03-14T13:18:26;99962.28;;;7.86;47.53
76297;BME280;65104;52.994;6.552;2023-03-14T13:20:59;99974.31;;;9.21;45.27
76297;BME280;65104;52.994;6.552;2023-03-14T13:23:30;99967.53;;;9.26;42.40
76297;BME280;65104;52.994;6.552;2023-03-14T13:25:57;99973.16;;;9.86;43.59
76297;BME280;65104;52.994;6.552;2023-03-14T13:28:25;99978.94;;;9.57;43.28
76297;BME280;65104;52.994;6.552;2023-03-14T13:30:56;99994.66;;;8.41;43.72
76297;BME280;65104;52.994;6.552;2023-03-14T13:33:23;100006.16;;;7.61;48.96
76297;BME280;65104;52.994;6.552;2023-03-14T13:35:56;100024.69;;;7.49;44.98
76297;BME280;65104;52.994;6.552;2023-03-14T13:38:25;100019.66;;;8.03;45.24
76297;BME280;65104;52.994;6.552;2023-03-14T13:40:54;100034.44;;;7.71;44.19
76297;BME280;65104;52.994;6.552;2023-03-14T13:43:35;100043.53;;;8.04;43.63
76297;BME280;65104;52.994;6.552;2023-03-14T13:46:16;100043.56;;;8.07;45.99
76297;BME280;65104;52.994;6.552;2023-03-14T13:48:48;100050.31;;;8.02;45.36
76297;BME280;65104;52.994;6.552;2023-03-14T13:51:16;100056.72;;;8.29;44.65
76297;BME280;65104;52.994;6.552;2023-03-14T13:53:48;100049.25;;;9.03;43.52
76297;BME280;65104;52.994;6.552;2023-03-14T13:56:17;100063.75;;;9.03;43.11
76297;BME280;65104;52.994;6.552;2023-03-14T13:58:43;100069.78;;;9.08;44.71
76297;BME280;65104;52.994;6.552;2023-03-14T14:01:33;100072.97;;;8.92;45.49
76297;BME280;65104;52.994;6.552;2023-03-14T14:04:15;100086.75;;;8.41;44.92
76297;BME280;65104;52.994;6.552;2023-03-14T14:07:00;100089.59;;;9.21;43.88
76297;BME280;65104;52.994;6.552;2023-03-14T14:09:29;100099.69;;;9.88;43.87
76297;BME280;65104;52.994;6.552;2023-03-14T14:12:00;100110.16;;;9.29;43.46
76297;BME280;65104;52.994;6.552;2023-03-14T14:14:31;100109.59;;;9.54;42.73
76297;BME280;65104;52.994;6.552;2023-03-14T14:16:58;100114.03;;;8.39;44.96
76297;BME280;65104;52.994;6.552;2023-03-14T14:19:28;100121.94;;;8.05;47.13
76297;BME280;65104;52.994;6.552;2023-03-14T14:21:56;100129.94;;;7.31;45.93
76297;BME280;65104;52.994;6.552;2023-03-14T14:24:24;100142.78;;;7.36;45.53
76297;BME280;65104;52.994;6.552;2023-03-14T14:26:59;100129.47;;;7.96;43.49
76297;BME280;65104;52.994;6.552;2023-03-14T14:29:28;100146.78;;;8.61;44.82
76297;BME280;65104;52.994;6.552;2023-03-14T14:32:13;100129.97;;;9.44;41.01
76297;BME280;65104;52.994;6.552;2023-03-14T14:37:34;100166.06;;;7.49;44.75
76297;BME280;65104;52.994;6.552;2023-03-14T14:40:09;100185.13;;;7.25;47.14
76297;BME280;65104;52.994;6.552;2023-03-14T14:42:39;100185.19;;;6.90;48.53
76297;BME280;65104;52.994;6.552;2023-03-14T14:45:13;100192.84;;;6.90;49.93